sensor_id;sensor_type;location;lat;lon;timestamp;P1;durP1;ratioP1;P2;durP2;ratioP2
71821;SDS011;64096;52.548;13.406;2023-04-01T00:00:48;2.58;;;1.42;;
71821;SDS011;64096;52.548;13.406;2023-04-01T00:03:14;2.80;;;1.27;;
71821;SDS011;64096;52.548;13.406;2023-04-01T00:05:41;3.35;;;1.30;;
71821;SDS011;64096;52.548;13.406;2023-04-01T00:08:07;2.80;;;1.10;;
71821;SDS011;64096;52.548;13.406;2023-04-01T00:10:33;2.60;;;1.50;;
71821;SDS011;64096;52.548;13.406;2023-04-01T00:12:59;2.28;;;1.05;;
71821;SDS011;64096;52.548;13.406;2023-04-01T00:15:25;4.75;;;2.53;;
71821;SDS011;64096;52.548;13.406;2023-04-01T00:17:51;2.83;;;1.45;;
71821;SDS011;64096;52.548;13.406;2023-04-01T00:20:17;2.30;;;1.20;;
71821;SDS011;64096;52.548;13.406;2023-04-01T00:22:43;2.78;;;1.30;;
71821;SDS011;64096;52.548;13.406;2023-04-01T00:25:10;3.58;;;1.55;;
71821;SDS011;64096;52.548;13.406;2023-04-01T00:27:36;2.38;;;1.00;;
71821;SDS011;64096;52.548;13.406;2023-04-01T00:30:02;3.45;;;1.33;;
71821;SDS011;64096;52.548;13.406;2023-04-01T00:32:29;1.55;;;0.90;;
71821;SDS011;64096;52.548;13.406;2023-04-01T00:34:56;1.98;;;0.90;;
71821;SDS011;64096;52.548;13.406;2023-04-01T00:37:24;2.67;;;1.48;;
71821;SDS011;64096;52.548;13.406;2023-04-01T00:39:50;3.60;;;1.25;;
71821;SDS011;64096;52.548;13.406;2023-04-01T00:42:16;2.92;;;1.20;;
71821;SDS011;64096;52.548;13.406;2023-04-01T00:44:44;2.10;;;1.10;;
71821;SDS011;64096;52.548;13.406;2023-04-01T00:47:10;2.33;;;1.00;;
71821;SDS011;64096;52.548;13.406;2023-04-01T00:49:38;3.13;;;1.20;;
71821;SDS011;64096;52.548;13.406;2023-04-01T00:52:05;2.13;;;1.10;;
71821;SDS011;64096;52.548;13.406;2023-04-01T00:54:32;3.63;;;1.33;;
71821;SDS011;64096;52.548;13.406;2023-04-01T00:57:02;2.88;;;1.20;;
71821;SDS011;64096;52.548;13.406;2023-04-01T00:59:32;3.92;;;1.40;;
71821;SDS011;64096;52.548;13.406;2023-04-01T01:02:00;2.05;;;1.20;;
71821;SDS011;64096;52.548;13.406;2023-04-01T01:04:28;2.20;;;0.95;;
71821;SDS011;64096;52.548;13.406;2023-04-01T01:14:55;2.72;;;1.27;;
71821;SDS011;64096;52.548;13.406;2023-04-01T01:28:22;2.30;;;1.13;;
71821;SDS011;64096;52.548;13.406;2023-04-01T01:30:52;2.10;;;1.05;;
71821;SDS011;64096;52.548;13.406;2023-04-01T01:35:57;3.05;;;1.33;;
71821;SDS011;64096;52.548;13.406;2023-04-01T01:38:26;2.58;;;1.50;;
71821;SDS011;64096;52.548;13.406;2023-04-01T01:40:53;3.38;;;1.42;;
71821;SDS011;64096;52.548;13.406;2023-04-01T01:43:23;3.33;;;1.33;;
71821;SDS011;64096;52.548;13.406;2023-04-01T01:45:50;3.70;;;1.30;;
71821;SDS011;64096;52.548;13.406;2023-04-01T01:48:18;3.20;;;1.35;;
71821;SDS011;64096;52.548;13.406;2023-04-01T01:50:45;2.30;;;1.23;;
71821;SDS011;64096;52.548;13.406;2023-04-01T01:53:12;3.13;;;1.20;;
71821;SDS011;64096;52.548;13.406;2023-04-01T01:55:44;2.17;;;1.00;;
71821;SDS011;64096;52.548;13.406;2023-04-01T02:00:37;5.72;;;1.80;;
71821;SDS011;64096;52.548;13.406;2023-04-01T02:03:05;3.90;;;1.60;;
71821;SDS011;64096;52.548;13.406;2023-04-01T02:05:31;2.97;;;1.50;;
71821;SDS011;64096;52.548;13.406;2023-04-01T02:08:08;3.92;;;1.40;;
71821;SDS011;64096;52.548;13.406;2023-04-01T02:10:37;2.85;;;1.35;;
71821;SDS011;64096;52.548;13.406;2023-04-01T02:13:05;3.03;;;1.30;;
71821;SDS011;64096;52.548;13.406;2023-04-01T02:15:33;2.42;;;1.08;;
71821;SDS011;64096;52.548;13.406;2023-04-01T02:18:00;3.22;;;1.30;;
71821;SDS011;64096;52.548;13.406;2023-04-01T02:20:26;2.90;;;1.27;;
71821;SDS011;64096;52.548;13.406;2023-04-01T02:22:54;2.58;;;1.10;;
71821;SDS011;64096;52.548;13.406;2023-04-01T02:25:25;2.72;;;1.00;;
71821;SDS011;64096;52.548;13.406;2023-04-01T02:27:52;2.40;;;1.20;;
71821;SDS011;64096;52.548;13.406;2023-04-01T02:30:20;4.07;;;1.30;;
71821;SDS011;64096;52.548;13.406;2023-04-01T02:32:46;2.63;;;1.10;;
71821;SDS011;64096;52.548;13.406;2023-04-01T02:35:15;2.15;;;1.00;;
71821;SDS011;64096;52.548;13.406;2023-04-01T02:37:42;2.40;;;1.05;;
71821;SDS011;64096;52.548;13.406;2023-04-01T02:40:09;2.53;;;0.90;;
71821;SDS011;64096;52.548;13.406;2023-04-01T02:42:36;2.28;;;0.95;;
71821;SDS011;64096;52.548;13.406;2023-04-01T02:45:02;1.63;;;1.00;;
71821;SDS011;64096;52.548;13.406;2023-04-01T02:47:29;2.13;;;1.13;;
71821;SDS011;64096;52.548;13.406;2023-04-01T02:49:55;3.22;;;1.20;;
71821;SDS011;64096;52.548;13.406;2023-04-01T02:52:26;2.50;;;0.95;;
71821;SDS011;64096;52.548;13.406;2023-04-01T02:54:53;3.13;;;1.35;;
71821;SDS011;64096;52.548;13.406;2023-04-01T02:57:19;3.13;;;1.17;;
71821;SDS011;64096;52.548;13.406;2023-04-01T02:59:45;3.38;;;1.27;;
71821;SDS011;64096;52.548;13.406;2023-04-01T03:02:11;2.60;;;1.20;;
71821;SDS011;64096;52.548;13.406;2023-04-01T03:04:37;2.97;;;1.08;;
71821;SDS011;64096;52.548;13.406;2023-04-01T03:07:03;3.63;;;1.25;;
71821;SDS011;64096;52.548;13.406;2023-04-01T03:09:29;2.88;;;1.25;;
71821;SDS011;64096;52.548;13.406;2023-04-01T03:11:55;2.60;;;1.10;;
71821;SDS011;64096;52.548;13.406;2023-04-01T03:14:21;3.78;;;1.10;;
71821;SDS011;64096;52.548;13.406;2023-04-01T03:16:47;2.95;;;1.10;;
71821;SDS011;64096;52.548;13.406;2023-04-01T03:19:13;3.25;;;1.10;;
71821;SDS011;64096;52.548;13.406;2023-04-01T03:21:39;3.95;;;1.58;;
71821;SDS011;64096;52.548;13.406;2023-04-01T03:24:05;2.85;;;1.10;;
71821;SDS011;64096;52.548;13.406;2023-04-01T03:26:32;2.50;;;1.10;;
71821;SDS011;64096;52.548;13.406;2023-04-01T03:28:58;2.63;;;1.20;;
71821;SDS011;64096;52.548;13.406;2023-04-01T03:31:25;1.80;;;1.00;;
71821;SDS011;64096;52.548;13.406;2023-04-01T03:33:51;2.15;;;0.90;;
71821;SDS011;64096;52.548;13.406;2023-04-01T03:36:17;2.88;;;1.10;;
71821;SDS011;64096;52.548;13.406;2023-04-01T03:38:43;1.95;;;0.95;;
71821;SDS011;64096;52.548;13.406;2023-04-01T03:41:16;3.75;;;1.38;;
71821;SDS011;64096;52.548;13.406;2023-04-01T03:43:43;2.58;;;1.15;;
71821;SDS011;64096;52.548;13.406;2023-04-01T03:46:09;2.80;;;1.10;;
71821;SDS011;64096;52.548;13.406;2023-04-01T03:48:35;2.75;;;1.27;;
71821;SDS011;64096;52.548;13.406;2023-04-01T03:51:05;2.25;;;1.10;;
71821;SDS011;64096;52.548;13.406;2023-04-01T03:53:31;2.72;;;1.17;;
71821;SDS011;64096;52.548;13.406;2023-04-01T03:55:58;3.08;;;1.20;;
71821;SDS011;64096;52.548;13.406;2023-04-01T03:58:25;2.33;;;1.27;;
71821;SDS011;64096;52.548;13.406;2023-04-01T04:00:51;2.67;;;1.38;;
71821;SDS011;64096;52.548;13.406;2023-04-01T04:03:17;2.53;;;1.20;;
71821;SDS011;64096;52.548;13.406;2023-04-01T04:05:47;2.47;;;1.20;;
71821;SDS011;64096;52.548;13.406;2023-04-01T04:08:13;3.30;;;1.20;;
71821;SDS011;64096;52.548;13.406;2023-04-01T04:10:39;2.95;;;1.23;;
71821;SDS011;64096;52.548;13.406;2023-04-01T04:13:06;2.95;;;1.50;;
71821;SDS011;64096;52.548;13.406;2023-04-01T04:15:32;2.80;;;1.30;;
71821;SDS011;64096;52.548;13.406;2023-04-01T04:17:58;3.58;;;1.35;;
71821;SDS011;64096;52.548;13.406;2023-04-01T04:20:24;2.28;;;1.08;;
71821;SDS011;64096;52.548;13.406;2023-04-01T04:22:50;2.92;;;1.00;;
71821;SDS011;64096;52.548;13.406;2023-04-01T04:25:16;2.97;;;1.25;;
71821;SDS011;64096;52.548;13.406;2023-04-01T04:27:42;2.47;;;1.10;;
71821;SDS011;64096;52.548;13.406;2023-04-01T04:30:09;2.65;;;1.15;;
71821;SDS011;64096;52.548;13.406;2023-04-01T04:32:35;2.95;;;1.20;;
71821;SDS011;64096;52.548;13.406;2023-04-01T04:35:01;3.03;;;1.25;;
71821;SDS011;64096;52.548;13.406;2023-04-01T04:37:27;2.30;;;1.13;;
71821;SDS011;64096;52.548;13.406;2023-04-01T04:39:53;2.38;;;1.20;;
71821;SDS011;64096;52.548;13.406;2023-04-01T04:42:19;3.30;;;1.38;;
71821;SDS011;64096;52.548;13.406;2023-04-01T04:44:45;6.40;;;3.75;;
71821;SDS011;64096;52.548;13.406;2023-04-01T04:47:11;6.05;;;3.25;;
71821;SDS011;64096;52.548;13.406;2023-04-01T04:49:37;4.28;;;1.90;;
71821;SDS011;64096;52.548;13.406;2023-04-01T04:52:03;3.65;;;1.80;;
71821;SDS011;64096;52.548;13.406;2023-04-01T04:54:29;3.20;;;1.30;;
71821;SDS011;64096;52.548;13.406;2023-04-01T04:56:55;2.67;;;1.30;;
71821;SDS011;64096;52.548;13.406;2023-04-01T04:59:21;2.58;;;1.23;;
71821;SDS011;64096;52.548;13.406;2023-04-01T05:01:47;2.67;;;1.30;;
71821;SDS011;64096;52.548;13.406;2023-04-01T05:04:14;3.20;;;1.50;;
71821;SDS011;64096;52.548;13.406;2023-04-01T05:06:40;2.50;;;1.30;;
71821;SDS011;64096;52.548;13.406;2023-04-01T05:09:06;3.20;;;1.55;;
71821;SDS011;64096;52.548;13.406;2023-04-01T05:11:32;3.63;;;1.60;;
71821;SDS011;64096;52.548;13.406;2023-04-01T05:13:58;3.08;;;1.50;;
71821;SDS011;64096;52.548;13.406;2023-04-01T05:16:24;3.05;;;1.42;;
71821;SDS011;64096;52.548;13.406;2023-04-01T05:18:50;4.10;;;1.75;;
71821;SDS011;64096;52.548;13.406;2023-04-01T05:21:16;4.35;;;1.58;;
71821;SDS011;64096;52.548;13.406;2023-04-01T05:23:42;2.67;;;1.70;;
71821;SDS011;64096;52.548;13.406;2023-04-01T05:26:10;3.17;;;1.50;;
71821;SDS011;64096;52.548;13.406;2023-04-01T05:28:36;4.25;;;1.90;;
71821;SDS011;64096;52.548;13.406;2023-04-01T05:31:03;3.45;;;1.50;;
71821;SDS011;64096;52.548;13.406;2023-04-01T05:33:29;3.50;;;1.55;;
71821;SDS011;64096;52.548;13.406;2023-04-01T05:35:56;4.10;;;1.70;;
71821;SDS011;64096;52.548;13.406;2023-04-01T05:38:22;3.50;;;1.50;;
71821;SDS011;64096;52.548;13.406;2023-04-01T05:40:48;2.70;;;1.30;;
71821;SDS011;64096;52.548;13.406;2023-04-01T05:43:14;3.88;;;1.55;;
71821;SDS011;64096;52.548;13.406;2023-04-01T05:45:40;5.40;;;1.40;;
71821;SDS011;64096;52.548;13.406;2023-04-01T05:48:06;3.47;;;1.48;;
71821;SDS011;64096;52.548;13.406;2023-04-01T05:50:32;3.55;;;1.63;;
71821;SDS011;64096;52.548;13.406;2023-04-01T05:52:59;3.70;;;1.60;;
71821;SDS011;64096;52.548;13.406;2023-04-01T05:55:25;4.10;;;1.73;;
71821;SDS011;64096;52.548;13.406;2023-04-01T05:57:51;3.05;;;1.58;;
71821;SDS011;64096;52.548;13.406;2023-04-01T06:00:17;3.70;;;1.90;;
71821;SDS011;64096;52.548;13.406;2023-04-01T06:02:44;3.92;;;1.70;;
71821;SDS011;64096;52.548;13.406;2023-04-01T06:05:13;4.18;;;1.77;;
71821;SDS011;64096;52.548;13.406;2023-04-01T06:07:40;3.55;;;1.77;;
71821;SDS011;64096;52.548;13.406;2023-04-01T06:10:13;4.47;;;1.80;;
71821;SDS011;64096;52.548;13.406;2023-04-01T06:13:01;3.47;;;1.88;;
71821;SDS011;64096;52.548;13.406;2023-04-01T06:15:33;2.97;;;1.77;;
71821;SDS011;64096;52.548;13.406;2023-04-01T06:20:49;4.97;;;2.00;;
71821;SDS011;64096;52.548;13.406;2023-04-01T06:31:03;3.60;;;1.58;;
71821;SDS011;64096;52.548;13.406;2023-04-01T06:43:40;3.75;;;1.98;;
71821;SDS011;64096;52.548;13.406;2023-04-01T06:53:49;3.28;;;1.73;;
71821;SDS011;64096;52.548;13.406;2023-04-01T06:56:18;5.60;;;2.20;;
71821;SDS011;64096;52.548;13.406;2023-04-01T06:58:55;4.38;;;2.13;;
71821;SDS011;64096;52.548;13.406;2023-04-01T07:01:24;4.30;;;1.90;;
71821;SDS011;64096;52.548;13.406;2023-04-01T07:06:25;4.50;;;2.30;;
71821;SDS011;64096;52.548;13.406;2023-04-01T07:08:53;3.53;;;1.90;;
71821;SDS011;64096;52.548;13.406;2023-04-01T07:11:30;4.28;;;2.10;;
71821;SDS011;64096;52.548;13.406;2023-04-01T07:14:06;4.95;;;2.55;;
71821;SDS011;64096;52.548;13.406;2023-04-01T07:16:39;3.58;;;1.90;;
71821;SDS011;64096;52.548;13.406;2023-04-01T07:19:12;3.65;;;1.95;;
71821;SDS011;64096;52.548;13.406;2023-04-01T07:21:41;3.63;;;2.10;;
71821;SDS011;64096;52.548;13.406;2023-04-01T07:24:12;5.03;;;2.38;;
71821;SDS011;64096;52.548;13.406;2023-04-01T07:26:42;5.22;;;2.50;;
71821;SDS011;64096;52.548;13.406;2023-04-01T07:29:12;4.07;;;2.15;;
71821;SDS011;64096;52.548;13.406;2023-04-01T07:34:23;5.72;;;2.80;;
71821;SDS011;64096;52.548;13.406;2023-04-01T07:39:45;6.43;;;3.00;;
71821;SDS011;64096;52.548;13.406;2023-04-01T07:47:19;4.25;;;2.50;;
71821;SDS011;64096;52.548;13.406;2023-04-01T07:52:20;3.92;;;2.15;;
71821;SDS011;64096;52.548;13.406;2023-04-01T07:54:50;3.45;;;1.75;;
71821;SDS011;64096;52.548;13.406;2023-04-01T08:07:58;5.18;;;3.45;;
71821;SDS011;64096;52.548;13.406;2023-04-01T08:10:29;3.77;;;2.03;;
71821;SDS011;64096;52.548;13.406;2023-04-01T08:18:56;3.15;;;1.77;;
71821;SDS011;64096;52.548;13.406;2023-04-01T08:23:46;6.22;;;3.80;;
71821;SDS011;64096;52.548;13.406;2023-04-01T08:31:40;6.75;;;4.35;;
71821;SDS011;64096;52.548;13.406;2023-04-01T08:34:15;6.82;;;4.80;;
71821;SDS011;64096;52.548;13.406;2023-04-01T08:36:45;6.93;;;4.25;;
71821;SDS011;64096;52.548;13.406;2023-04-01T08:39:22;8.57;;;5.05;;
71821;SDS011;64096;52.548;13.406;2023-04-01T08:44:34;8.60;;;5.50;;
71821;SDS011;64096;52.548;13.406;2023-04-01T09:00:21;9.07;;;7.00;;
71821;SDS011;64096;52.548;13.406;2023-04-01T09:02:58;8.90;;;7.22;;
71821;SDS011;64096;52.548;13.406;2023-04-01T09:18:30;9.07;;;6.88;;
71821;SDS011;64096;52.548;13.406;2023-04-01T09:28:38;9.48;;;8.43;;
71821;SDS011;64096;52.548;13.406;2023-04-01T09:36:43;9.57;;;8.38;;
71821;SDS011;64096;52.548;13.406;2023-04-01T09:41:45;9.30;;;8.15;;
71821;SDS011;64096;52.548;13.406;2023-04-01T09:44:25;9.57;;;7.88;;
71821;SDS011;64096;52.548;13.406;2023-04-01T09:55:06;8.02;;;6.65;;
71821;SDS011;64096;52.548;13.406;2023-04-01T10:23:43;7.95;;;7.13;;
71821;SDS011;64096;52.548;13.406;2023-04-01T10:26:19;10.38;;;8.15;;
71821;SDS011;64096;52.548;13.406;2023-04-01T10:29:00;8.23;;;6.90;;
71821;SDS011;64096;52.548;13.406;2023-04-01T10:36:54;10.90;;;9.55;;
71821;SDS011;64096;52.548;13.406;2023-04-01T10:39:32;10.95;;;9.60;;
71821;SDS011;64096;52.548;13.406;2023-04-01T10:47:23;9.70;;;8.68;;
71821;SDS011;64096;52.548;13.406;2023-04-01T10:50:04;9.45;;;8.38;;
71821;SDS011;64096;52.548;13.406;2023-04-01T10:58:08;9.32;;;8.35;;
71821;SDS011;64096;52.548;13.406;2023-04-01T11:11:06;8.90;;;7.82;;
71821;SDS011;64096;52.548;13.406;2023-04-01T11:19:00;8.30;;;7.50;;
71821;SDS011;64096;52.548;13.406;2023-04-01T11:44:36;10.07;;;9.07;;
71821;SDS011;64096;52.548;13.406;2023-04-01T11:55:06;9.30;;;8.30;;
71821;SDS011;64096;52.548;13.406;2023-04-01T12:03:33;9.55;;;8.05;;
71821;SDS011;64096;52.548;13.406;2023-04-01T12:06:05;10.10;;;9.05;;
71821;SDS011;64096;52.548;13.406;2023-04-01T12:08:49;8.67;;;7.80;;
71821;SDS011;64096;52.548;13.406;2023-04-01T12:19:29;8.30;;;7.45;;
71821;SDS011;64096;52.548;13.406;2023-04-01T12:27:31;8.50;;;7.70;;
71821;SDS011;64096;52.548;13.406;2023-04-01T12:40:39;9.43;;;8.43;;
71821;SDS011;64096;52.548;13.406;2023-04-01T12:56:38;10.35;;;9.20;;
71821;SDS011;64096;52.548;13.406;2023-04-01T12:59:25;10.63;;;9.52;;
71821;SDS011;64096;52.548;13.406;2023-04-01T13:09:56;10.60;;;9.43;;
71821;SDS011;64096;52.548;13.406;2023-04-01T13:28:15;9.52;;;8.55;;
71821;SDS011;64096;52.548;13.406;2023-04-01T13:30:42;9.70;;;8.80;;
71821;SDS011;64096;52.548;13.406;2023-04-01T13:33:27;10.15;;;8.80;;
71821;SDS011;64096;52.548;13.406;2023-04-01T13:38:48;9.55;;;8.43;;
71821;SDS011;64096;52.548;13.406;2023-04-01T13:44:28;8.98;;;8.05;;
71821;SDS011;64096;52.548;13.406;2023-04-01T13:57:14;6.57;;;5.88;;
